Terminal Aerodrome Forecast
Issued by NWS Portland, OR

Home | Current Version | Previous Version | Text Only | Print | Product List | Glossary On
Versions: 1 2 3 4 5 6 7 8 9 10 11 12 13 14 15 16 17 18 19
000
FTUS46 KPQR 170528
TAFEUG
TAF
KEUG 170528Z 1706/1806 VRB03KT P6SM SKC
     FM170800 00000KT 3SM BR SCT002
     FM171000 00000KT 1/2SM FG VV001
     FM171600 VRB03KT 4SM BR BKN003 BKN120
     FM171800 18009KT P6SM FEW010 BKN040 OVC070
      TEMPO 1720/1724 -RA=

USA.gov is the U.S. government's official web portal to all federal, state and local government web resources and services.